sensor_id;sensor_type;location;lat;lon;timestamp;P1;durP1;ratioP1;P2;durP2;ratioP2
66093;SDS011;52876;49.394;10.892;2023-01-28T00:00:45;8.17;;;6.40;;
66093;SDS011;52876;49.394;10.892;2023-01-28T00:03:10;8.27;;;6.97;;
66093;SDS011;52876;49.394;10.892;2023-01-28T00:05:36;6.73;;;6.10;;
66093;SDS011;52876;49.394;10.892;2023-01-28T00:08:04;5.40;;;4.83;;
66093;SDS011;52876;49.394;10.892;2023-01-28T00:10:31;6.77;;;6.07;;
66093;SDS011;52876;49.394;10.892;2023-01-28T00:12:57;7.00;;;5.70;;
66093;SDS011;52876;49.394;10.892;2023-01-28T00:15:23;8.60;;;6.50;;
66093;SDS011;52876;49.394;10.892;2023-01-28T00:17:49;8.80;;;6.37;;
66093;SDS011;52876;49.394;10.892;2023-01-28T00:20:15;10.17;;;7.30;;
66093;SDS011;52876;49.394;10.892;2023-01-28T00:22:45;6.83;;;6.07;;
66093;SDS011;52876;49.394;10.892;2023-01-28T00:25:13;6.77;;;6.07;;
66093;SDS011;52876;49.394;10.892;2023-01-28T00:27:40;9.70;;;6.37;;
66093;SDS011;52876;49.394;10.892;2023-01-28T00:30:07;10.47;;;7.57;;
66093;SDS011;52876;49.394;10.892;2023-01-28T00:32:39;10.13;;;7.47;;
66093;SDS011;52876;49.394;10.892;2023-01-28T00:35:05;7.77;;;6.67;;
66093;SDS011;52876;49.394;10.892;2023-01-28T00:37:33;10.97;;;8.17;;
66093;SDS011;52876;49.394;10.892;2023-01-28T00:39:59;11.90;;;7.80;;
66093;SDS011;52876;49.394;10.892;2023-01-28T00:42:28;10.80;;;7.90;;
66093;SDS011;52876;49.394;10.892;2023-01-28T00:44:53;11.10;;;8.40;;
66093;SDS011;52876;49.394;10.892;2023-01-28T00:47:19;9.10;;;7.87;;
66093;SDS011;52876;49.394;10.892;2023-01-28T00:49:45;15.20;;;10.20;;
66093;SDS011;52876;49.394;10.892;2023-01-28T00:52:11;20.70;;;13.70;;
66093;SDS011;52876;49.394;10.892;2023-01-28T00:54:37;19.63;;;12.33;;
66093;SDS011;52876;49.394;10.892;2023-01-28T00:57:04;17.23;;;12.33;;
66093;SDS011;52876;49.394;10.892;2023-01-28T00:59:32;14.90;;;10.73;;
66093;SDS011;52876;49.394;10.892;2023-01-28T01:01:59;13.47;;;9.73;;
66093;SDS011;52876;49.394;10.892;2023-01-28T01:04:25;14.80;;;10.90;;
66093;SDS011;52876;49.394;10.892;2023-01-28T01:06:51;10.13;;;8.87;;
66093;SDS011;52876;49.394;10.892;2023-01-28T01:09:17;15.33;;;10.30;;
66093;SDS011;52876;49.394;10.892;2023-01-28T01:11:43;13.20;;;9.30;;
66093;SDS011;52876;49.394;10.892;2023-01-28T01:14:09;11.43;;;9.10;;
66093;SDS011;52876;49.394;10.892;2023-01-28T01:16:38;12.20;;;9.50;;
66093;SDS011;52876;49.394;10.892;2023-01-28T01:19:04;14.30;;;9.30;;
66093;SDS011;52876;49.394;10.892;2023-01-28T01:21:30;14.97;;;10.00;;
66093;SDS011;52876;49.394;10.892;2023-01-28T01:23:56;7.93;;;7.07;;
66093;SDS011;52876;49.394;10.892;2023-01-28T01:26:24;9.90;;;8.20;;
66093;SDS011;52876;49.394;10.892;2023-01-28T01:28:50;13.70;;;10.00;;
66093;SDS011;52876;49.394;10.892;2023-01-28T01:31:16;11.93;;;9.03;;
66093;SDS011;52876;49.394;10.892;2023-01-28T01:33:45;12.70;;;8.53;;
66093;SDS011;52876;49.394;10.892;2023-01-28T01:36:13;9.63;;;7.60;;
66093;SDS011;52876;49.394;10.892;2023-01-28T01:38:41;11.60;;;8.50;;
66093;SDS011;52876;49.394;10.892;2023-01-28T01:41:07;12.47;;;9.60;;
66093;SDS011;52876;49.394;10.892;2023-01-28T01:43:46;17.57;;;11.63;;
66093;SDS011;52876;49.394;10.892;2023-01-28T01:46:14;12.90;;;9.90;;
66093;SDS011;52876;49.394;10.892;2023-01-28T01:48:42;14.27;;;9.60;;
66093;SDS011;52876;49.394;10.892;2023-01-28T01:51:10;16.13;;;11.47;;
66093;SDS011;52876;49.394;10.892;2023-01-28T01:53:39;14.67;;;10.27;;
66093;SDS011;52876;49.394;10.892;2023-01-28T01:56:10;14.03;;;9.97;;
66093;SDS011;52876;49.394;10.892;2023-01-28T01:58:39;13.83;;;10.70;;
66093;SDS011;52876;49.394;10.892;2023-01-28T02:01:09;16.53;;;11.50;;
66093;SDS011;52876;49.394;10.892;2023-01-28T02:03:37;12.77;;;8.93;;
66093;SDS011;52876;49.394;10.892;2023-01-28T02:06:10;11.40;;;8.90;;
66093;SDS011;52876;49.394;10.892;2023-01-28T02:08:37;13.50;;;9.73;;
66093;SDS011;52876;49.394;10.892;2023-01-28T02:11:03;14.97;;;10.30;;
66093;SDS011;52876;49.394;10.892;2023-01-28T02:13:32;13.97;;;9.70;;
66093;SDS011;52876;49.394;10.892;2023-01-28T02:16:02;13.60;;;11.03;;
66093;SDS011;52876;49.394;10.892;2023-01-28T02:18:30;14.63;;;10.27;;
66093;SDS011;52876;49.394;10.892;2023-01-28T02:21:03;12.23;;;9.80;;
66093;SDS011;52876;49.394;10.892;2023-01-28T02:23:45;13.20;;;10.23;;
66093;SDS011;52876;49.394;10.892;2023-01-28T02:26:46;15.23;;;10.13;;
66093;SDS011;52876;49.394;10.892;2023-01-28T02:29:23;14.30;;;9.80;;
66093;SDS011;52876;49.394;10.892;2023-01-28T02:31:58;15.27;;;11.33;;
66093;SDS011;52876;49.394;10.892;2023-01-28T02:34:33;15.70;;;10.83;;
66093;SDS011;52876;49.394;10.892;2023-01-28T02:37:03;13.70;;;10.60;;
66093;SDS011;52876;49.394;10.892;2023-01-28T02:39:35;15.37;;;10.73;;
66093;SDS011;52876;49.394;10.892;2023-01-28T02:42:05;13.90;;;10.37;;
66093;SDS011;52876;49.394;10.892;2023-01-28T02:44:36;15.77;;;11.70;;
66093;SDS011;52876;49.394;10.892;2023-01-28T02:47:01;12.10;;;10.57;;
66093;SDS011;52876;49.394;10.892;2023-01-28T02:49:28;15.87;;;10.70;;
66093;SDS011;52876;49.394;10.892;2023-01-28T02:52:07;16.23;;;11.07;;
66093;SDS011;52876;49.394;10.892;2023-01-28T02:54:53;19.20;;;11.80;;
66093;SDS011;52876;49.394;10.892;2023-01-28T02:57:27;17.33;;;11.47;;
66093;SDS011;52876;49.394;10.892;2023-01-28T03:00:05;14.40;;;11.47;;
66093;SDS011;52876;49.394;10.892;2023-01-28T03:02:40;18.00;;;12.97;;
66093;SDS011;52876;49.394;10.892;2023-01-28T03:05:12;18.50;;;12.90;;
66093;SDS011;52876;49.394;10.892;2023-01-28T03:07:45;16.70;;;11.97;;
66093;SDS011;52876;49.394;10.892;2023-01-28T03:10:12;17.60;;;12.83;;
66093;SDS011;52876;49.394;10.892;2023-01-28T03:12:43;17.63;;;12.40;;
66093;SDS011;52876;49.394;10.892;2023-01-28T03:15:14;17.00;;;12.87;;
66093;SDS011;52876;49.394;10.892;2023-01-28T03:17:44;18.87;;;13.33;;
66093;SDS011;52876;49.394;10.892;2023-01-28T03:20:13;18.87;;;13.10;;
66093;SDS011;52876;49.394;10.892;2023-01-28T03:22:41;21.10;;;13.73;;
66093;SDS011;52876;49.394;10.892;2023-01-28T03:25:12;18.87;;;13.00;;
66093;SDS011;52876;49.394;10.892;2023-01-28T03:27:42;22.30;;;16.50;;
66093;SDS011;52876;49.394;10.892;2023-01-28T03:30:18;20.03;;;14.40;;
66093;SDS011;52876;49.394;10.892;2023-01-28T03:32:48;19.43;;;13.27;;
66093;SDS011;52876;49.394;10.892;2023-01-28T03:35:15;19.97;;;14.40;;
66093;SDS011;52876;49.394;10.892;2023-01-28T03:37:45;18.77;;;14.83;;
66093;SDS011;52876;49.394;10.892;2023-01-28T03:40:12;18.37;;;13.47;;
66093;SDS011;52876;49.394;10.892;2023-01-28T03:42:39;17.83;;;13.10;;
66093;SDS011;52876;49.394;10.892;2023-01-28T03:45:06;17.40;;;12.53;;
66093;SDS011;52876;49.394;10.892;2023-01-28T03:47:35;15.90;;;11.90;;
66093;SDS011;52876;49.394;10.892;2023-01-28T03:50:01;16.23;;;11.80;;
66093;SDS011;52876;49.394;10.892;2023-01-28T03:52:29;17.00;;;11.17;;
66093;SDS011;52876;49.394;10.892;2023-01-28T03:54:56;16.13;;;11.97;;
66093;SDS011;52876;49.394;10.892;2023-01-28T03:57:24;22.87;;;14.03;;
66093;SDS011;52876;49.394;10.892;2023-01-28T03:59:51;18.33;;;12.93;;
66093;SDS011;52876;49.394;10.892;2023-01-28T04:02:18;18.57;;;12.37;;
66093;SDS011;52876;49.394;10.892;2023-01-28T04:04:46;16.97;;;11.60;;
66093;SDS011;52876;49.394;10.892;2023-01-28T04:07:13;17.60;;;11.83;;
66093;SDS011;52876;49.394;10.892;2023-01-28T04:09:39;16.77;;;12.13;;
66093;SDS011;52876;49.394;10.892;2023-01-28T04:12:07;17.90;;;11.40;;
66093;SDS011;52876;49.394;10.892;2023-01-28T04:14:34;18.00;;;12.00;;
66093;SDS011;52876;49.394;10.892;2023-01-28T04:17:01;17.57;;;12.70;;
66093;SDS011;52876;49.394;10.892;2023-01-28T04:19:27;18.13;;;12.30;;
66093;SDS011;52876;49.394;10.892;2023-01-28T04:21:54;20.93;;;12.97;;
66093;SDS011;52876;49.394;10.892;2023-01-28T04:24:20;19.13;;;12.50;;
66093;SDS011;52876;49.394;10.892;2023-01-28T04:26:48;17.90;;;12.00;;
66093;SDS011;52876;49.394;10.892;2023-01-28T04:29:14;20.70;;;12.63;;
66093;SDS011;52876;49.394;10.892;2023-01-28T04:31:40;20.80;;;13.70;;
66093;SDS011;52876;49.394;10.892;2023-01-28T04:34:06;21.03;;;14.73;;
66093;SDS011;52876;49.394;10.892;2023-01-28T04:36:32;20.20;;;13.67;;
66093;SDS011;52876;49.394;10.892;2023-01-28T04:39:00;19.27;;;11.90;;
66093;SDS011;52876;49.394;10.892;2023-01-28T04:41:27;20.97;;;13.00;;
66093;SDS011;52876;49.394;10.892;2023-01-28T04:43:53;21.23;;;13.67;;
66093;SDS011;52876;49.394;10.892;2023-01-28T04:46:19;20.03;;;13.00;;
66093;SDS011;52876;49.394;10.892;2023-01-28T04:48:45;16.70;;;12.17;;
66093;SDS011;52876;49.394;10.892;2023-01-28T04:51:13;21.70;;;13.60;;
66093;SDS011;52876;49.394;10.892;2023-01-28T04:53:39;18.73;;;12.77;;
66093;SDS011;52876;49.394;10.892;2023-01-28T04:56:07;20.43;;;12.60;;
66093;SDS011;52876;49.394;10.892;2023-01-28T04:58:33;22.83;;;15.10;;
66093;SDS011;52876;49.394;10.892;2023-01-28T05:00:59;22.47;;;14.47;;
66093;SDS011;52876;49.394;10.892;2023-01-28T05:03:25;19.60;;;12.70;;
66093;SDS011;52876;49.394;10.892;2023-01-28T05:05:53;23.23;;;14.40;;
66093;SDS011;52876;49.394;10.892;2023-01-28T05:08:19;19.90;;;13.23;;
66093;SDS011;52876;49.394;10.892;2023-01-28T05:10:46;23.93;;;15.23;;
66093;SDS011;52876;49.394;10.892;2023-01-28T05:13:14;22.10;;;14.53;;
66093;SDS011;52876;49.394;10.892;2023-01-28T05:15:41;22.47;;;13.83;;
66093;SDS011;52876;49.394;10.892;2023-01-28T05:18:07;22.77;;;14.77;;
66093;SDS011;52876;49.394;10.892;2023-01-28T05:20:33;22.17;;;14.20;;
66093;SDS011;52876;49.394;10.892;2023-01-28T05:22:58;23.63;;;14.47;;
66093;SDS011;52876;49.394;10.892;2023-01-28T05:25:24;18.50;;;11.87;;
66093;SDS011;52876;49.394;10.892;2023-01-28T05:27:50;23.73;;;14.53;;
66093;SDS011;52876;49.394;10.892;2023-01-28T05:30:18;20.53;;;14.00;;
66093;SDS011;52876;49.394;10.892;2023-01-28T05:32:46;20.90;;;13.70;;
66093;SDS011;52876;49.394;10.892;2023-01-28T05:35:12;25.67;;;14.77;;
66093;SDS011;52876;49.394;10.892;2023-01-28T05:37:39;22.20;;;15.07;;
66093;SDS011;52876;49.394;10.892;2023-01-28T05:40:06;26.63;;;15.60;;
66093;SDS011;52876;49.394;10.892;2023-01-28T05:42:33;23.27;;;14.90;;
66093;SDS011;52876;49.394;10.892;2023-01-28T05:44:59;27.97;;;15.80;;
66093;SDS011;52876;49.394;10.892;2023-01-28T05:47:28;26.57;;;15.97;;
66093;SDS011;52876;49.394;10.892;2023-01-28T05:49:54;22.70;;;14.77;;
66093;SDS011;52876;49.394;10.892;2023-01-28T05:52:21;25.23;;;16.43;;
66093;SDS011;52876;49.394;10.892;2023-01-28T05:54:47;23.27;;;15.60;;
66093;SDS011;52876;49.394;10.892;2023-01-28T05:57:15;26.40;;;17.00;;
66093;SDS011;52876;49.394;10.892;2023-01-28T05:59:41;27.57;;;16.50;;
66093;SDS011;52876;49.394;10.892;2023-01-28T06:02:07;27.67;;;16.57;;
66093;SDS011;52876;49.394;10.892;2023-01-28T06:04:34;23.40;;;14.43;;
66093;SDS011;52876;49.394;10.892;2023-01-28T06:07:01;27.13;;;15.37;;
66093;SDS011;52876;49.394;10.892;2023-01-28T06:09:27;25.03;;;16.10;;
66093;SDS011;52876;49.394;10.892;2023-01-28T06:11:55;22.93;;;14.40;;
66093;SDS011;52876;49.394;10.892;2023-01-28T06:14:21;24.23;;;14.80;;
66093;SDS011;52876;49.394;10.892;2023-01-28T06:16:47;26.07;;;14.30;;
66093;SDS011;52876;49.394;10.892;2023-01-28T06:19:13;27.63;;;16.20;;
66093;SDS011;52876;49.394;10.892;2023-01-28T06:21:40;27.03;;;16.77;;
66093;SDS011;52876;49.394;10.892;2023-01-28T06:24:06;33.33;;;17.40;;
66093;SDS011;52876;49.394;10.892;2023-01-28T06:26:32;25.23;;;15.53;;
66093;SDS011;52876;49.394;10.892;2023-01-28T06:28:58;26.97;;;16.03;;
66093;SDS011;52876;49.394;10.892;2023-01-28T06:31:24;31.50;;;19.47;;
66093;SDS011;52876;49.394;10.892;2023-01-28T06:33:50;29.87;;;16.50;;
66093;SDS011;52876;49.394;10.892;2023-01-28T06:36:18;33.73;;;18.23;;
66093;SDS011;52876;49.394;10.892;2023-01-28T06:38:45;29.10;;;16.97;;
66093;SDS011;52876;49.394;10.892;2023-01-28T06:41:12;32.77;;;18.17;;
66093;SDS011;52876;49.394;10.892;2023-01-28T06:43:38;26.00;;;15.27;;
66093;SDS011;52876;49.394;10.892;2023-01-28T06:46:05;33.47;;;19.77;;
66093;SDS011;52876;49.394;10.892;2023-01-28T06:48:31;31.83;;;18.90;;
66093;SDS011;52876;49.394;10.892;2023-01-28T06:50:59;29.57;;;17.20;;
66093;SDS011;52876;49.394;10.892;2023-01-28T06:53:25;31.87;;;18.43;;
66093;SDS011;52876;49.394;10.892;2023-01-28T06:55:52;35.37;;;20.23;;
66093;SDS011;52876;49.394;10.892;2023-01-28T06:58:18;36.43;;;19.10;;
66093;SDS011;52876;49.394;10.892;2023-01-28T07:00:44;37.23;;;20.33;;
66093;SDS011;52876;49.394;10.892;2023-01-28T07:03:10;38.27;;;21.40;;
66093;SDS011;52876;49.394;10.892;2023-01-28T07:05:36;32.97;;;17.83;;
66093;SDS011;52876;49.394;10.892;2023-01-28T07:08:02;37.50;;;19.80;;
66093;SDS011;52876;49.394;10.892;2023-01-28T07:10:28;31.37;;;19.53;;
66093;SDS011;52876;49.394;10.892;2023-01-28T07:12:55;34.20;;;18.83;;
66093;SDS011;52876;49.394;10.892;2023-01-28T07:15:21;33.03;;;18.57;;
66093;SDS011;52876;49.394;10.892;2023-01-28T07:17:48;31.37;;;17.10;;
66093;SDS011;52876;49.394;10.892;2023-01-28T07:20:15;32.10;;;19.10;;
66093;SDS011;52876;49.394;10.892;2023-01-28T07:22:43;34.30;;;19.10;;
66093;SDS011;52876;49.394;10.892;2023-01-28T07:25:09;30.43;;;17.57;;
66093;SDS011;52876;49.394;10.892;2023-01-28T07:27:38;31.17;;;18.43;;
66093;SDS011;52876;49.394;10.892;2023-01-28T07:30:06;32.33;;;18.73;;
66093;SDS011;52876;49.394;10.892;2023-01-28T07:32:37;37.07;;;20.40;;
66093;SDS011;52876;49.394;10.892;2023-01-28T07:35:04;33.20;;;18.20;;
66093;SDS011;52876;49.394;10.892;2023-01-28T07:37:31;32.50;;;18.83;;
66093;SDS011;52876;49.394;10.892;2023-01-28T07:39:57;29.90;;;18.03;;
66093;SDS011;52876;49.394;10.892;2023-01-28T07:42:25;28.50;;;17.13;;
66093;SDS011;52876;49.394;10.892;2023-01-28T07:44:51;27.10;;;14.97;;
66093;SDS011;52876;49.394;10.892;2023-01-28T07:47:19;27.77;;;16.70;;
66093;SDS011;52876;49.394;10.892;2023-01-28T07:49:45;26.60;;;17.40;;
66093;SDS011;52876;49.394;10.892;2023-01-28T07:52:12;28.53;;;17.97;;
66093;SDS011;52876;49.394;10.892;2023-01-28T07:54:38;34.00;;;20.30;;
66093;SDS011;52876;49.394;10.892;2023-01-28T07:57:06;31.27;;;19.07;;
66093;SDS011;52876;49.394;10.892;2023-01-28T07:59:32;33.20;;;20.70;;
66093;SDS011;52876;49.394;10.892;2023-01-28T08:01:58;30.03;;;19.00;;
66093;SDS011;52876;49.394;10.892;2023-01-28T08:04:25;25.47;;;14.80;;
66093;SDS011;52876;49.394;10.892;2023-01-28T08:06:52;19.20;;;12.93;;
66093;SDS011;52876;49.394;10.892;2023-01-28T08:09:18;23.03;;;14.40;;
66093;SDS011;52876;49.394;10.892;2023-01-28T08:11:44;23.07;;;13.80;;
66093;SDS011;52876;49.394;10.892;2023-01-28T08:14:10;18.83;;;12.83;;
66093;SDS011;52876;49.394;10.892;2023-01-28T08:16:38;20.57;;;13.83;;
66093;SDS011;52876;49.394;10.892;2023-01-28T08:19:04;24.10;;;15.30;;
66093;SDS011;52876;49.394;10.892;2023-01-28T08:21:31;20.00;;;13.40;;
66093;SDS011;52876;49.394;10.892;2023-01-28T08:23:57;49.97;;;30.53;;
66093;SDS011;52876;49.394;10.892;2023-01-28T08:26:23;32.23;;;19.10;;
66093;SDS011;52876;49.394;10.892;2023-01-28T08:28:49;21.00;;;14.80;;
66093;SDS011;52876;49.394;10.892;2023-01-28T08:31:16;17.03;;;11.90;;
66093;SDS011;52876;49.394;10.892;2023-01-28T08:33:42;18.17;;;11.80;;
66093;SDS011;52876;49.394;10.892;2023-01-28T08:36:08;14.97;;;10.17;;
66093;SDS011;52876;49.394;10.892;2023-01-28T08:38:35;18.83;;;12.60;;
66093;SDS011;52876;49.394;10.892;2023-01-28T08:41:01;15.80;;;10.87;;
66093;SDS011;52876;49.394;10.892;2023-01-28T08:43:27;16.37;;;10.40;;
66093;SDS011;52876;49.394;10.892;2023-01-28T08:45:53;22.33;;;14.87;;
66093;SDS011;52876;49.394;10.892;2023-01-28T08:48:19;15.93;;;11.83;;
66093;SDS011;52876;49.394;10.892;2023-01-28T08:50:47;12.80;;;9.67;;
66093;SDS011;52876;49.394;10.892;2023-01-28T08:53:14;12.40;;;8.90;;
66093;SDS011;52876;49.394;10.892;2023-01-28T08:55:44;15.90;;;10.50;;
66093;SDS011;52876;49.394;10.892;2023-01-28T08:58:12;26.37;;;21.13;;
66093;SDS011;52876;49.394;10.892;2023-01-28T09:00:38;18.00;;;12.60;;
66093;SDS011;52876;49.394;10.892;2023-01-28T09:03:04;15.73;;;11.13;;
66093;SDS011;52876;49.394;10.892;2023-01-28T09:05:33;15.20;;;10.80;;
66093;SDS011;52876;49.394;10.892;2023-01-28T09:07:59;11.40;;;8.30;;
66093;SDS011;52876;49.394;10.892;2023-01-28T09:10:27;15.17;;;10.30;;
66093;SDS011;52876;49.394;10.892;2023-01-28T09:12:55;12.67;;;10.20;;
66093;SDS011;52876;49.394;10.892;2023-01-28T09:15:22;20.03;;;14.50;;
66093;SDS011;52876;49.394;10.892;2023-01-28T09:17:48;15.53;;;12.10;;
66093;SDS011;52876;49.394;10.892;2023-01-28T09:20:16;12.93;;;9.90;;
66093;SDS011;52876;49.394;10.892;2023-01-28T09:22:44;12.57;;;8.50;;
66093;SDS011;52876;49.394;10.892;2023-01-28T09:25:10;12.57;;;8.77;;
66093;SDS011;52876;49.394;10.892;2023-01-28T09:27:37;12.23;;;10.33;;
66093;SDS011;52876;49.394;10.892;2023-01-28T09:30:05;10.00;;;7.77;;
66093;SDS011;52876;49.394;10.892;2023-01-28T09:32:34;11.43;;;8.87;;
66093;SDS011;52876;49.394;10.892;2023-01-28T09:35:00;10.00;;;6.80;;
66093;SDS011;52876;49.394;10.892;2023-01-28T09:37:28;8.27;;;6.50;;
66093;SDS011;52876;49.394;10.892;2023-01-28T09:39:54;8.10;;;6.50;;
66093;SDS011;52876;49.394;10.892;2023-01-28T09:42:28;8.77;;;6.80;;
66093;SDS011;52876;49.394;10.892;2023-01-28T09:45:12;5.73;;;5.13;;
66093;SDS011;52876;49.394;10.892;2023-01-28T09:47:43;8.40;;;7.30;;
66093;SDS011;52876;49.394;10.892;2023-01-28T09:50:15;8.87;;;8.00;;
66093;SDS011;52876;49.394;10.892;2023-01-28T09:52:46;9.63;;;8.60;;
66093;SDS011;52876;49.394;10.892;2023-01-28T09:55:14;6.37;;;5.10;;
66093;SDS011;52876;49.394;10.892;2023-01-28T09:57:48;5.50;;;4.80;;
66093;SDS011;52876;49.394;10.892;2023-01-28T10:00:20;6.83;;;6.10;;
66093;SDS011;52876;49.394;10.892;2023-01-28T10:02:52;7.23;;;6.53;;
66093;SDS011;52876;49.394;10.892;2023-01-28T10:05:41;3.77;;;3.47;;
66093;SDS011;52876;49.394;10.892;2023-01-28T10:08:19;7.13;;;6.43;;
66093;SDS011;52876;49.394;10.892;2023-01-28T10:10:54;5.00;;;4.60;;
66093;SDS011;52876;49.394;10.892;2023-01-28T10:13:27;6.67;;;5.97;;
66093;SDS011;52876;49.394;10.892;2023-01-28T10:16:02;5.27;;;4.50;;
66093;SDS011;52876;49.394;10.892;2023-01-28T10:18:39;5.83;;;5.13;;
66093;SDS011;52876;49.394;10.892;2023-01-28T10:21:12;5.93;;;5.10;;
66093;SDS011;52876;49.394;10.892;2023-01-28T10:23:45;4.00;;;3.70;;
66093;SDS011;52876;49.394;10.892;2023-01-28T10:26:22;6.07;;;5.47;;
66093;SDS011;52876;49.394;10.892;2023-01-28T10:28:51;4.73;;;4.23;;
66093;SDS011;52876;49.394;10.892;2023-01-28T10:31:23;7.30;;;6.60;;
66093;SDS011;52876;49.394;10.892;2023-01-28T10:33:55;4.03;;;3.73;;
66093;SDS011;52876;49.394;10.892;2023-01-28T10:36:23;7.03;;;6.33;;
66093;SDS011;52876;49.394;10.892;2023-01-28T10:38:49;5.10;;;4.60;;
66093;SDS011;52876;49.394;10.892;2023-01-28T10:41:19;5.90;;;5.40;;
66093;SDS011;52876;49.394;10.892;2023-01-28T10:43:46;4.93;;;4.53;;
66093;SDS011;52876;49.394;10.892;2023-01-28T10:46:15;4.73;;;3.70;;
66093;SDS011;52876;49.394;10.892;2023-01-28T10:48:46;3.80;;;3.50;;
66093;SDS011;52876;49.394;10.892;2023-01-28T10:51:28;4.57;;;4.17;;
66093;SDS011;52876;49.394;10.892;2023-01-28T10:53:56;4.60;;;4.20;;
66093;SDS011;52876;49.394;10.892;2023-01-28T10:56:22;5.10;;;4.63;;
66093;SDS011;52876;49.394;10.892;2023-01-28T10:58:53;6.27;;;4.30;;
66093;SDS011;52876;49.394;10.892;2023-01-28T11:01:25;10.77;;;5.70;;
66093;SDS011;52876;49.394;10.892;2023-01-28T11:04:13;3.93;;;3.20;;
66093;SDS011;52876;49.394;10.892;2023-01-28T11:06:50;4.77;;;4.37;;
66093;SDS011;52876;49.394;10.892;2023-01-28T11:09:20;4.10;;;3.70;;
66093;SDS011;52876;49.394;10.892;2023-01-28T11:11:48;3.63;;;3.40;;
66093;SDS011;52876;49.394;10.892;2023-01-28T11:14:18;6.00;;;5.40;;
66093;SDS011;52876;49.394;10.892;2023-01-28T11:16:45;5.13;;;4.73;;
66093;SDS011;52876;49.394;10.892;2023-01-28T11:19:13;7.60;;;5.67;;
66093;SDS011;52876;49.394;10.892;2023-01-28T11:21:39;5.30;;;4.80;;
66093;SDS011;52876;49.394;10.892;2023-01-28T11:24:13;3.60;;;3.30;;
66093;SDS011;52876;49.394;10.892;2023-01-28T11:26:42;2.90;;;2.70;;
66093;SDS011;52876;49.394;10.892;2023-01-28T11:29:17;3.20;;;3.00;;
66093;SDS011;52876;49.394;10.892;2023-01-28T11:31:47;2.83;;;2.63;;
66093;SDS011;52876;49.394;10.892;2023-01-28T11:34:15;3.60;;;3.30;;
66093;SDS011;52876;49.394;10.892;2023-01-28T11:36:48;2.87;;;2.67;;
66093;SDS011;52876;49.394;10.892;2023-01-28T11:39:16;4.10;;;3.80;;
66093;SDS011;52876;49.394;10.892;2023-01-28T11:41:45;3.70;;;3.03;;
66093;SDS011;52876;49.394;10.892;2023-01-28T11:44:14;3.40;;;2.93;;
66093;SDS011;52876;49.394;10.892;2023-01-28T11:47:00;4.00;;;3.70;;
66093;SDS011;52876;49.394;10.892;2023-01-28T11:49:42;3.63;;;3.33;;
66093;SDS011;52876;49.394;10.892;2023-01-28T11:52:19;3.23;;;2.93;;
66093;SDS011;52876;49.394;10.892;2023-01-28T11:54:53;3.10;;;2.90;;
66093;SDS011;52876;49.394;10.892;2023-01-28T11:57:30;3.20;;;2.97;;
66093;SDS011;52876;49.394;10.892;2023-01-28T12:00:12;2.83;;;2.63;;
66093;SDS011;52876;49.394;10.892;2023-01-28T12:02:54;2.60;;;2.40;;
66093;SDS011;52876;49.394;10.892;2023-01-28T12:05:41;3.87;;;2.60;;
66093;SDS011;52876;49.394;10.892;2023-01-28T12:08:15;3.40;;;3.20;;
66093;SDS011;52876;49.394;10.892;2023-01-28T12:10:51;4.40;;;4.10;;
66093;SDS011;52876;49.394;10.892;2023-01-28T12:13:44;4.17;;;3.77;;
66093;SDS011;52876;49.394;10.892;2023-01-28T12:19:27;4.80;;;4.50;;
66093;SDS011;52876;49.394;10.892;2023-01-28T12:22:13;10.30;;;9.30;;
66093;SDS011;52876;49.394;10.892;2023-01-28T12:25:04;3.73;;;3.43;;
66093;SDS011;52876;49.394;10.892;2023-01-28T12:27:47;18.40;;;16.70;;
66093;SDS011;52876;49.394;10.892;2023-01-28T12:30:21;3.93;;;3.63;;
66093;SDS011;52876;49.394;10.892;2023-01-28T12:33:02;5.77;;;5.27;;
66093;SDS011;52876;49.394;10.892;2023-01-28T12:35:49;13.73;;;10.03;;
66093;SDS011;52876;49.394;10.892;2023-01-28T12:38:29;6.93;;;5.70;;
66093;SDS011;52876;49.394;10.892;2023-01-28T12:41:06;4.53;;;4.13;;
66093;SDS011;52876;49.394;10.892;2023-01-28T12:43:40;4.83;;;4.43;;
66093;SDS011;52876;49.394;10.892;2023-01-28T12:46:16;5.37;;;4.53;;
66093;SDS011;52876;49.394;10.892;2023-01-28T12:48:51;4.37;;;4.07;;
66093;SDS011;52876;49.394;10.892;2023-01-28T12:51:23;4.40;;;3.97;;
66093;SDS011;52876;49.394;10.892;2023-01-28T12:53:56;3.97;;;3.67;;
66093;SDS011;52876;49.394;10.892;2023-01-28T12:56:29;3.93;;;3.67;;
66093;SDS011;52876;49.394;10.892;2023-01-28T12:59:00;4.77;;;3.67;;
66093;SDS011;52876;49.394;10.892;2023-01-28T13:01:34;4.40;;;4.00;;
66093;SDS011;52876;49.394;10.892;2023-01-28T13:04:08;4.17;;;3.77;;
66093;SDS011;52876;49.394;10.892;2023-01-28T13:06:41;4.00;;;3.70;;
66093;SDS011;52876;49.394;10.892;2023-01-28T13:09:15;4.80;;;4.40;;
66093;SDS011;52876;49.394;10.892;2023-01-28T13:11:45;4.77;;;3.60;;
66093;SDS011;52876;49.394;10.892;2023-01-28T13:14:14;4.43;;;4.00;;
66093;SDS011;52876;49.394;10.892;2023-01-28T13:16:42;4.77;;;4.20;;
66093;SDS011;52876;49.394;10.892;2023-01-28T13:19:20;5.90;;;4.47;;
66093;SDS011;52876;49.394;10.892;2023-01-28T13:21:49;4.70;;;4.30;;
66093;SDS011;52876;49.394;10.892;2023-01-28T13:24:22;4.30;;;3.90;;
66093;SDS011;52876;49.394;10.892;2023-01-28T13:26:57;4.97;;;4.47;;
66093;SDS011;52876;49.394;10.892;2023-01-28T13:29:28;5.00;;;4.60;;
66093;SDS011;52876;49.394;10.892;2023-01-28T13:31:58;5.83;;;4.27;;
66093;SDS011;52876;49.394;10.892;2023-01-28T13:34:31;5.70;;;5.20;;
66093;SDS011;52876;49.394;10.892;2023-01-28T13:37:02;8.00;;;7.30;;
66093;SDS011;52876;49.394;10.892;2023-01-28T13:39:34;5.00;;;4.60;;
66093;SDS011;52876;49.394;10.892;2023-01-28T13:42:09;9.60;;;5.33;;
66093;SDS011;52876;49.394;10.892;2023-01-28T13:44:47;6.33;;;5.80;;
66093;SDS011;52876;49.394;10.892;2023-01-28T13:47:18;8.40;;;7.60;;
66093;SDS011;52876;49.394;10.892;2023-01-28T13:49:49;16.97;;;15.17;;
66093;SDS011;52876;49.394;10.892;2023-01-28T13:52:22;7.10;;;5.30;;
66093;SDS011;52876;49.394;10.892;2023-01-28T13:54:57;6.20;;;5.60;;
66093;SDS011;52876;49.394;10.892;2023-01-28T14:00:42;13.13;;;11.70;;
66093;SDS011;52876;49.394;10.892;2023-01-28T14:06:28;6.80;;;5.70;;
66093;SDS011;52876;49.394;10.892;2023-01-28T14:09:09;6.13;;;5.53;;
66093;SDS011;52876;49.394;10.892;2023-01-28T14:12:00;9.27;;;8.30;;
66093;SDS011;52876;49.394;10.892;2023-01-28T14:14:45;11.70;;;9.60;;
66093;SDS011;52876;49.394;10.892;2023-01-28T14:17:33;7.03;;;6.30;;
66093;SDS011;52876;49.394;10.892;2023-01-28T14:20:10;11.40;;;8.90;;
66093;SDS011;52876;49.394;10.892;2023-01-28T14:22:42;7.67;;;6.67;;
66093;SDS011;52876;49.394;10.892;2023-01-28T14:25:11;7.10;;;6.40;;
66093;SDS011;52876;49.394;10.892;2023-01-28T14:27:41;7.93;;;7.23;;
66093;SDS011;52876;49.394;10.892;2023-01-28T14:30:15;7.40;;;6.80;;
66093;SDS011;52876;49.394;10.892;2023-01-28T14:32:48;6.87;;;6.17;;
66093;SDS011;52876;49.394;10.892;2023-01-28T14:35:18;6.20;;;5.63;;
66093;SDS011;52876;49.394;10.892;2023-01-28T14:37:49;6.27;;;5.60;;
66093;SDS011;52876;49.394;10.892;2023-01-28T14:40:17;5.60;;;4.83;;
66093;SDS011;52876;49.394;10.892;2023-01-28T14:42:48;9.57;;;7.47;;